In Rescue
 
Open Full Screen Window  High Contrast Mode
Wind Gusting 00 knots
09
November 29, 2022 7:49 AM CST
Present Weather: Light Snow
Weather Information
Wind Direction
  330 °
Wind Speed
  09 kt (10 mph)
Wind Gust
  00 kt (0 mph)
Altimeter
29.73 in
Visibility
2 SM
Temperature
-05° C
23° F
Dewpoint
-06° C
21° F
Humidity
93%
1hr Rain Fall
00.00 in.
24hr Rain Fall
00.00 in.
Sky Condition
Overcast @ 1,000 ft
IFR

METAR KOVL 291349Z AUTO 33009KT 2SM -SN OVC010 M05/M06 A2973 RMK AO2

FAA Disclaimer: The data displayed is for advisory purposes only and is not to be used for flight planning or operations.